Language selection

Weather shortcuts

Strait of Georgia - south of Nanaimo: Past 24 Hour Conditions

 

Sentry Shoal - 46131

05:00 PM PDT 27 May 2024Buoy position: 49.92N 125.0W
Disclaimer

This table is a summary of hourly weather conditions for the past 24 hours.
Please note that these observations might not always be representative of weather conditions over their associated marine area.

Date / Time
(PDT)
Wind(knots) Wave height(m) Wave period(s) Pressure(kPa) Air tempC) Water tempC)
27 May 2024
17:00 NNW 12 gusts 13 0.61 3.4 102.0 13 11
16:00 NNW 12 gusts 15 0.59 3.4 102.0 12 11
15:00 NW 13 gusts 15 0.72 3.4 102.0 12 11
14:00 WNW 14 gusts 17 0.76 3.7 102.0 12 11
13:00 N 15 gusts 18 0.66 3.6 102.0 12 11
12:00 W 13 gusts 17 0.63 3.5 102.0 12 11
11:00 WNW 10 gusts 13 0.63 3.8 101.9 12 11
10:00 WNW 13 gusts 17 0.65 3.8 101.9 12 11
9:00 WNW 14 gusts 16 0.69 4.1 101.8 12 11
8:00 NNE 15 gusts 17 0.88 4.4 101.8 11 11
7:00 NW 13 gusts 16 0.94 4.5 101.8 11 11
6:00 NNE 15 gusts 21 0.89 3.8 101.7 11 11
5:00 N 15 gusts 17 0.93 4.3 101.7 11 11
4:00 E 16 gusts 18 0.97 4.7 101.7 12 11
3:00 ENE 16 gusts 19 1.04 4.7 101.7 12 10
2:00 ENE 17 gusts 20 1.13 4.3 101.7 12 10
1:00 ENE 21 gusts 25 1.39 5.1 101.7 12 10
0:00 ENE 17 gusts 21 1.26 4.7 101.7 12 10
26 May 2024
23:00 E 18 gusts 24 1.22 5.0 101.7 12 10
22:00 E 16 gusts 18 1.26 5.3 101.7 12 10
21:00 ESE 21 gusts 25 1.36 5.4 101.7 12 11
20:00 E 24 gusts 29 1.46 5.1 101.6 12 11
19:00 E 21 gusts 25 1.42 5.4 101.7 12 11
18:00 E 21 gusts 26 1.34 5.3 101.7 12 11
17:00 ENE 19 gusts 22 1.40 5.4 101.7 12 11

Zoom-in to make a selection

Map of Pacific - Georgia Basin marine weather areas Sentry Shoal - 46131 Halibut Bank - 46146 La Perouse Bank - 46206 Georgia Strait - 46303 English Bay – 46304 Discovery Island Esquimalt Harbour Kelp Reefs Malahat Race Rocks Lightstation Saturna Island Sheringham Point University of Victoria Victoria Gonzales Victoria Int'l Airport Ballenas Islands Campbell River Airport Comox Airport Entrance Island Fanny Island Nanaimo Airport Sisters Islets Estevan Point Port Alberni Tofino Airport Grief Point Howe Sound - Pam Rocks Powell River Airport Sechelt Squamish Airport Point Atkinson Sand Heads Lightstation Tsawwassen Ferry Terminal Vancouver Int'l Airport Vancouver Harbour West Vancouver
Legend:
buoy Buoy
land station Land Station

Pacific - Georgia Basin Area

Another Region

Features

New Predicting and Alerting Coastal Flooding Program

Find out about coastal flooding coverage, forecasts and warnings in your region

Date modified: